Time;durP1;ratioP1;P1;durP2;ratioP2;P2;SDS_P1;SDS_P2;PMS_P1;PMS_P2;Temp;Humidity;BMP_temperature;BMP_pressure;BME280_temperature;BME280_humidity;BME280_pressure;Samples;Min_cycle;Max_cycle;Signal;HPM_P1;HPM_P2
2022/10/08 00:01:27;;;;;;;0.10;0.10;;;12.30;99.90;;;;;;5053654;28;20385;-74
2022/10/08 00:03:55;;;;;;;0.13;0.13;;;12.30;99.90;;;;;;5053586;28;20025;-74
2022/10/08 00:06:27;;;;;;;0.17;0.17;;;12.40;99.90;;;;;;5054508;28;20656;-74
2022/10/08 00:08:57;;;;;;;0.20;0.20;;;12.30;99.90;;;;;;5053383;28;20049;-74
2022/10/08 00:11:25;;;;;;;0.20;0.20;;;12.40;99.90;;;;;;5054545;28;20051;-74
2022/10/08 00:13:53;;;;;;;4.38;1.67;;;12.30;99.90;;;;;;5054656;28;20029;-74
2022/10/08 00:16:30;;;;;;;0.20;0.20;;;12.30;99.90;;;;;;5054339;28;20147;-73
2022/10/08 00:19:06;;;;;;;0.20;0.20;;;12.10;99.90;;;;;;5053131;28;20032;-73
2022/10/08 00:21:34;;;;;;;0.30;0.30;;;12.10;99.90;;;;;;5054402;28;20025;-72
2022/10/08 00:24:02;;;;;;;0.20;0.20;;;12.10;99.90;;;;;;5052039;28;20040;-73
2022/10/08 00:26:31;;;;;;;0.57;0.57;;;12.20;99.90;;;;;;5054030;28;20115;-73
2022/10/08 00:29:00;;;;;;;0.63;0.63;;;12.10;99.90;;;;;;5054285;28;20032;-73
2022/10/08 00:31:37;;;;;;;0.10;0.10;;;12.10;99.90;;;;;;5052913;28;20052;-73
2022/10/08 00:34:06;;;;;;;0.52;0.52;;;12.10;99.90;;;;;;5053047;28;20032;-73
2022/10/08 00:36:34;;;;;;;0.20;0.20;;;12.00;99.90;;;;;;5052741;28;20035;-73
2022/10/08 00:39:03;;;;;;;0.10;0.10;;;12.00;99.90;;;;;;5054155;28;20029;-73
2022/10/08 00:41:32;;;;;;;0.10;0.10;;;12.10;99.90;;;;;;5052844;28;20504;-74
2022/10/08 00:44:03;;;;;;;0.10;0.10;;;12.00;99.90;;;;;;5054086;28;20525;-73
2022/10/08 00:46:40;;;;;;;0.20;0.20;;;12.30;99.90;;;;;;5053690;28;20496;-73
2022/10/08 00:49:11;;;;;;;0.13;0.13;;;12.20;99.90;;;;;;5052595;28;20040;-73
2022/10/08 00:51:43;;;;;;;0.13;0.13;;;12.20;99.90;;;;;;5053672;28;20426;-74
2022/10/08 00:54:10;;;;;;;0.10;0.10;;;12.40;99.90;;;;;;5053853;28;20123;-73
2022/10/08 00:56:38;;;;;;;0.20;0.20;;;12.50;99.90;;;;;;5053534;28;20020;-74
2022/10/08 00:59:06;;;;;;;0.20;0.20;;;12.50;99.90;;;;;;5053740;28;20029;-73
2022/10/08 01:01:32;;;;;;;0.20;0.20;;;12.40;99.90;;;;;;5053741;28;20301;-73
2022/10/08 01:04:04;;;;;;;0.15;0.15;;;12.50;99.90;;;;;;5053674;28;20021;-73
2022/10/08 01:06:47;;;;;;;0.35;0.35;;;12.40;99.90;;;;;;5035383;28;20039;-73
2022/10/08 01:09:17;;;;;;;0.25;0.25;;;12.40;99.90;;;;;;5053490;28;20047;-74
2022/10/08 01:12:01;;;;;;;0.10;0.10;;;12.30;99.90;;;;;;5053684;28;20021;-73
2022/10/08 01:15:16;;;;;;;0.10;0.10;;;12.40;99.90;;;;;;5053455;28;20075;-73
2022/10/08 01:17:54;;;;;;;0.20;0.20;;;12.30;99.90;;;;;;5044259;28;20037;-73
2022/10/08 01:20:26;;;;;;;0.20;0.20;;;12.10;99.90;;;;;;5052134;28;20029;-74
2022/10/08 01:22:54;;;;;;;0.50;0.50;;;12.20;99.90;;;;;;5051996;28;20055;-74
2022/10/08 01:25:45;;;;;;;0.20;0.20;;;12.20;99.90;;;;;;5053008;28;20115;-73
2022/10/08 01:28:32;;;;;;;0.35;0.35;;;12.20;99.90;;;;;;5052092;28;20025;-73
2022/10/08 01:31:09;;;;;;;0.10;0.10;;;12.30;99.90;;;;;;5053322;28;20044;-73
2022/10/08 01:33:52;;;;;;;0.10;0.10;;;12.30;99.90;;;;;;5051763;28;20465;-73
2022/10/08 01:36:20;;;;;;;1.13;1.13;;;12.30;99.90;;;;;;5052718;28;20029;-73
2022/10/08 01:38:52;;;;;;;0.10;0.10;;;12.20;99.90;;;;;;5051684;28;20056;-73
2022/10/08 01:41:21;;;;;;;1.85;1.75;;;12.00;99.90;;;;;;5052895;28;20099;-73
2022/10/08 01:44:00;;;;;;;0.10;0.10;;;12.00;99.90;;;;;;5052970;28;20025;-73
2022/10/08 01:46:29;;;;;;;0.10;0.10;;;12.20;99.90;;;;;;5052596;28;20064;-73
2022/10/08 01:48:59;;;;;;;0.20;0.20;;;12.40;99.90;;;;;;5052824;28;20028;-74
2022/10/08 01:51:51;;;;;;;0.20;0.20;;;12.50;99.90;;;;;;5052593;28;20025;-74
2022/10/08 01:54:19;;;;;;;0.10;0.10;;;12.50;99.90;;;;;;5044647;28;20040;-74
2022/10/08 01:56:46;;;;;;;0.10;0.10;;;12.50;99.90;;;;;;5052514;28;20527;-73
2022/10/08 01:59:41;;;;;;;0.20;0.20;;;12.50;99.90;;;;;;5052685;28;20029;-73
2022/10/08 02:02:12;;;;;;;0.17;0.17;;;12.50;99.90;;;;;;5051517;28;20076;-73
2022/10/08 02:04:38;;;;;;;0.20;0.20;;;12.50;99.90;;;;;;5051193;28;20056;-73
2022/10/08 02:07:13;;;;;;;0.20;0.20;;;12.40;99.90;;;;;;5052279;28;20021;-73
2022/10/08 02:09:42;;;;;;;0.10;0.10;;;12.50;99.90;;;;;;5052321;28;20032;-73
2022/10/08 02:12:09;;;;;;;0.10;0.10;;;12.30;99.90;;;;;;5052432;28;20147;-73
2022/10/08 02:14:39;;;;;;;0.20;0.20;;;12.30;99.90;;;;;;5052203;28;20025;-73
2022/10/08 02:17:29;;;;;;;0.10;0.10;;;12.20;99.90;;;;;;5052042;28;20028;-73
2022/10/08 02:20:15;;;;;;;0.10;0.10;;;12.20;99.90;;;;;;5052184;28;20017;-74
2022/10/08 02:22:50;;;;;;;0.20;0.20;;;12.00;99.90;;;;;;5052005;28;20176;-73
2022/10/08 02:25:46;;;;;;;0.20;0.20;;;12.10;99.90;;;;;;5050649;28;20040;-73
2022/10/08 02:28:27;;;;;;;0.10;0.10;;;12.10;99.90;;;;;;5036076;28;20069;-73
2022/10/08 02:30:58;;;;;;;0.20;0.20;;;12.20;99.90;;;;;;5052145;28;20024;-73
2022/10/08 02:33:46;;;;;;;0.32;0.32;;;12.20;99.90;;;;;;5051868;28;20017;-73
2022/10/08 02:36:16;;;;;;;0.15;0.15;;;12.00;99.90;;;;;;5050524;28;20067;-74
2022/10/08 02:38:49;;;;;;;0.10;0.10;;;11.80;99.90;;;;;;5050715;28;20024;-73
2022/10/08 02:41:17;;;;;;;0.10;0.10;;;11.80;99.90;;;;;;5051919;28;20124;-73
2022/10/08 02:43:47;;;;;;;0.57;0.57;;;11.80;99.90;;;;;;5051736;28;20382;-73
2022/10/08 02:46:16;;;;;;;0.20;0.20;;;11.90;99.90;;;;;;5050280;28;20021;-73
2022/10/08 02:49:04;;;;;;;0.10;0.10;;;11.90;99.90;;;;;;5051220;28;20030;-73
2022/10/08 02:51:34;;;;;;;0.10;0.10;;;12.00;99.90;;;;;;5051625;28;20074;-74
2022/10/08 02:54:03;;;;;;;0.20;0.20;;;12.00;99.90;;;;;;5051656;28;20538;-74
2022/10/08 02:56:57;;;;;;;0.20;0.20;;;12.00;99.90;;;;;;5050239;28;20052;-74
2022/10/08 02:59:24;;;;;;;0.20;0.20;;;12.00;99.90;;;;;;5050391;28;20083;-73
2022/10/08 03:02:03;;;;;;;0.10;0.10;;;12.00;99.90;;;;;;5050448;28;20108;-73
2022/10/08 03:04:37;;;;;;;0.20;0.20;;;12.10;99.90;;;;;;5051434;28;20025;-73
2022/10/08 03:07:04;;;;;;;0.20;0.20;;;12.20;99.90;;;;;;5051557;28;20087;-73
2022/10/08 03:09:40;;;;;;;0.20;0.20;;;12.30;99.90;;;;;;5051607;28;20420;-73
2022/10/08 03:12:06;;;;;;;0.10;0.10;;;12.30;99.90;;;;;;5050346;28;20053;-73
2022/10/08 03:14:38;;;;;;;0.25;0.25;;;12.30;99.90;;;;;;5050398;28;20053;-73
2022/10/08 03:17:05;;;;;;;0.20;0.20;;;12.20;99.90;;;;;;5050193;28;20481;-74
2022/10/08 03:19:33;;;;;;;0.20;0.20;;;12.20;99.90;;;;;;5050169;28;20060;-74
2022/10/08 03:22:01;;;;;;;0.13;0.13;;;12.30;99.90;;;;;;5050084;28;20048;-74
2022/10/08 03:24:27;;;;;;;0.20;0.20;;;12.30;99.90;;;;;;5051230;28;20450;-73
2022/10/08 03:26:53;;;;;;;0.15;0.15;;;12.30;99.90;;;;;;5051135;28;20048;-74
2022/10/08 03:29:19;;;;;;;0.10;0.10;;;12.20;99.90;;;;;;5050173;28;20059;-73
2022/10/08 03:31:48;;;;;;;0.20;0.20;;;12.40;99.90;;;;;;5051343;28;20032;-74
2022/10/08 03:34:14;;;;;;;0.10;0.10;;;12.30;99.90;;;;;;5051259;28;20523;-73
2022/10/08 03:36:40;;;;;;;0.10;0.10;;;12.30;99.90;;;;;;5049739;28;20056;-74
2022/10/08 03:39:05;;;;;;;0.17;0.17;;;12.40;99.90;;;;;;5051445;28;20511;-73
2022/10/08 03:41:31;;;;;;;0.20;0.20;;;12.50;99.90;;;;;;5051214;28;20033;-73
2022/10/08 03:43:58;;;;;;;0.35;0.35;;;12.50;99.90;;;;;;5051208;28;20029;-73
2022/10/08 03:46:24;;;;;;;0.10;0.10;;;12.20;99.90;;;;;;5051086;28;20391;-73
2022/10/08 03:48:50;;;;;;;0.10;0.10;;;12.10;99.90;;;;;;5049946;28;20032;-73
2022/10/08 03:51:17;;;;;;;0.10;0.10;;;12.20;99.90;;;;;;5051111;28;20017;-74
2022/10/08 03:53:44;;;;;;;0.13;0.13;;;12.10;99.90;;;;;;5050191;28;20064;-73
2022/10/08 03:56:18;;;;;;;0.20;0.20;;;12.10;99.90;;;;;;5050883;28;20025;-73
2022/10/08 03:58:46;;;;;;;0.20;0.20;;;12.20;99.90;;;;;;5052115;28;20032;-73
2022/10/08 04:01:14;;;;;;;0.10;0.10;;;12.10;99.90;;;;;;5054959;28;20083;-73
2022/10/08 04:03:41;;;;;;;0.30;0.30;;;12.20;99.90;;;;;;5054949;28;20028;-73
2022/10/08 04:06:07;;;;;;;0.10;0.10;;;12.20;99.90;;;;;;5053235;28;20025;-73
2022/10/08 04:08:34;;;;;;;0.20;0.20;;;12.10;99.90;;;;;;5054767;28;20029;-74
2022/10/08 04:11:08;;;;;;;0.10;0.10;;;12.10;99.90;;;;;;5054701;28;20071;-73
2022/10/08 04:13:35;;;;;;;0.57;0.57;;;12.10;99.90;;;;;;5053183;28;20028;-74
2022/10/08 04:16:10;;;;;;;0.10;0.10;;;12.00;99.90;;;;;;5054402;28;20033;-73
2022/10/08 04:18:36;;;;;;;0.15;0.15;;;11.90;99.90;;;;;;5054653;28;20052;-74
2022/10/08 04:21:06;;;;;;;0.10;0.10;;;12.00;99.90;;;;;;5054468;28;20031;-74
2022/10/08 04:23:33;;;;;;;0.10;0.10;;;11.90;99.90;;;;;;5053067;28;20033;-73
2022/10/08 04:26:00;;;;;;;0.20;0.20;;;12.10;99.90;;;;;;5036373;28;20117;-73
2022/10/08 04:28:26;;;;;;;0.17;0.17;;;12.20;99.90;;;;;;5054181;28;20044;-74
2022/10/08 04:31:01;;;;;;;0.95;0.95;;;12.30;99.90;;;;;;5054185;28;20033;-73
2022/10/08 04:33:29;;;;;;;0.20;0.20;;;12.30;99.90;;;;;;5054177;28;20049;-73
2022/10/08 04:35:55;;;;;;;0.10;0.10;;;12.10;99.90;;;;;;5054078;28;20106;-73
2022/10/08 04:38:22;;;;;;;0.20;0.20;;;12.10;99.90;;;;;;5054118;28;20025;-73
2022/10/08 04:40:48;;;;;;;0.20;0.20;;;12.20;99.90;;;;;;5054083;28;20024;-73
2022/10/08 04:43:14;;;;;;;0.15;0.15;;;12.40;99.90;;;;;;5052916;28;20040;-73
2022/10/08 04:45:44;;;;;;;0.20;0.20;;;12.50;99.90;;;;;;5052246;28;20396;-73
2022/10/08 04:48:12;;;;;;;0.20;0.20;;;12.60;99.90;;;;;;5053993;28;20123;-74
2022/10/08 04:50:38;;;;;;;0.20;0.20;;;12.80;99.90;;;;;;5052572;28;20075;-74
2022/10/08 04:53:05;;;;;;;0.10;0.10;;;12.80;99.90;;;;;;5052524;28;20024;-74
2022/10/08 04:55:31;;;;;;;0.20;0.20;;;12.80;99.90;;;;;;5053623;28;20051;-73
2022/10/08 04:57:57;;;;;;;0.10;0.10;;;12.90;99.90;;;;;;5053928;28;20032;-73
2022/10/08 05:00:23;;;;;;;0.10;0.10;;;12.90;99.90;;;;;;5053619;28;20029;-73
2022/10/08 05:02:49;;;;;;;0.10;0.10;;;12.90;99.90;;;;;;5053744;28;20150;-73
2022/10/08 05:05:15;;;;;;;0.65;0.52;;;12.80;99.90;;;;;;5053419;28;20029;-74
2022/10/08 05:07:41;;;;;;;0.10;0.10;;;12.70;99.90;;;;;;5052431;28;20116;-74
2022/10/08 05:10:07;;;;;;;0.10;0.10;;;12.60;99.90;;;;;;5053019;28;20021;-73
2022/10/08 05:12:33;;;;;;;0.20;0.20;;;12.70;99.90;;;;;;5053628;28;20029;-73
2022/10/08 05:14:58;;;;;;;0.10;0.10;;;12.70;99.90;;;;;;5053093;28;20614;-73
2022/10/08 05:17:24;;;;;;;0.50;0.50;;;12.70;99.90;;;;;;5044586;28;20099;-73
2022/10/08 05:19:50;;;;;;;0.10;0.10;;;12.80;99.90;;;;;;5050418;28;20116;-74
2022/10/08 05:22:16;;;;;;;0.20;0.20;;;12.90;99.90;;;;;;5049815;28;20108;-73
2022/10/08 05:24:42;;;;;;;0.10;0.10;;;12.90;99.90;;;;;;5040003;28;20041;-73
2022/10/08 05:27:08;;;;;;;0.30;0.30;;;12.90;99.90;;;;;;5039760;28;20021;-74
2022/10/08 05:29:34;;;;;;;0.10;0.10;;;13.00;99.90;;;;;;5052830;28;20385;-74
2022/10/08 05:32:00;;;;;;;0.10;0.10;;;13.10;99.90;;;;;;5051703;28;20066;-74
2022/10/08 05:34:25;;;;;;;0.03;0.03;;;13.20;99.90;;;;;;5052972;28;20130;-74
2022/10/08 05:36:51;;;;;;;0.10;0.10;;;13.20;99.90;;;;;;5034860;28;20028;-73
2022/10/08 05:39:17;;;;;;;0.10;0.10;;;13.10;99.90;;;;;;5048774;28;20043;-74
2022/10/08 05:41:43;;;;;;;1.00;0.88;;;13.10;99.90;;;;;;5052821;28;20025;-76
2022/10/08 05:44:10;;;;;;;0.15;0.15;;;13.00;99.90;;;;;;5052778;28;20031;-75
2022/10/08 05:46:37;;;;;;;0.55;0.55;;;12.90;99.90;;;;;;5052325;28;20017;-74
2022/10/08 05:49:05;;;;;;;1.55;1.45;;;12.90;99.90;;;;;;5051038;28;20067;-74
2022/10/08 05:51:31;;;;;;;0.47;0.47;;;12.80;99.90;;;;;;5052648;28;20036;-74
2022/10/08 05:53:59;;;;;;;0.20;0.20;;;12.80;99.90;;;;;;5052407;28;20435;-73
2022/10/08 05:56:26;;;;;;;0.10;0.10;;;12.80;99.90;;;;;;5051044;28;20028;-74
2022/10/08 05:58:53;;;;;;;0.10;0.10;;;12.80;99.90;;;;;;5051008;28;20029;-74
2022/10/08 06:01:22;;;;;;;0.20;0.20;;;12.80;99.90;;;;;;5051285;28;20102;-75
2022/10/08 06:04:06;;;;;;;0.20;0.20;;;12.90;99.90;;;;;;5052292;28;20056;-74
2022/10/08 06:06:34;;;;;;;0.57;0.57;;;13.10;99.90;;;;;;5049291;28;20059;-74
2022/10/08 06:09:00;;;;;;;0.10;0.10;;;13.00;99.90;;;;;;5034203;28;20100;-74
2022/10/08 06:11:31;;;;;;;0.10;0.10;;;13.00;99.90;;;;;;5045791;28;20040;-74
2022/10/08 06:13:59;;;;;;;0.20;0.20;;;13.00;99.90;;;;;;5051109;28;20029;-73
2022/10/08 06:16:26;;;;;;;0.20;0.20;;;13.00;99.90;;;;;;5035539;28;20057;-74
2022/10/08 06:18:52;;;;;;;0.10;0.10;;;13.00;99.90;;;;;;5032199;28;20025;-73
2022/10/08 06:21:20;;;;;;;0.50;0.50;;;13.00;99.90;;;;;;5032224;28;20033;-74
2022/10/08 06:23:49;;;;;;;0.10;0.10;;;13.00;99.90;;;;;;5036707;28;20032;-74
2022/10/08 06:26:16;;;;;;;0.10;0.10;;;13.10;99.90;;;;;;5051698;28;20537;-74
2022/10/08 06:28:43;;;;;;;0.10;0.10;;;13.10;99.90;;;;;;5051711;28;20021;-74
2022/10/08 06:31:09;;;;;;;0.10;0.10;;;13.10;99.90;;;;;;5050633;28;20021;-74
2022/10/08 06:33:35;;;;;;;0.10;0.10;;;13.30;99.90;;;;;;5051890;28;20021;-74
2022/10/08 06:36:23;;;;;;;0.10;0.10;;;13.50;99.90;;;;;;5051548;28;20028;-75
2022/10/08 06:38:57;;;;;;;0.17;0.17;;;13.50;99.90;;;;;;5051722;28;20021;-73
2022/10/08 06:41:24;;;;;;;0.10;0.10;;;13.70;99.90;;;;;;5051808;28;20044;-76
2022/10/08 06:43:50;;;;;;;0.30;0.30;;;13.60;99.90;;;;;;5050203;28;20064;-74
2022/10/08 06:46:17;;;;;;;0.15;0.15;;;13.70;99.90;;;;;;5051476;28;20075;-75
2022/10/08 06:48:43;;;;;;;0.22;0.22;;;13.70;99.90;;;;;;5050304;28;20116;-74
2022/10/08 06:51:16;;;;;;;0.30;0.30;;;13.80;99.90;;;;;;5051729;28;20101;-73
2022/10/08 06:53:43;;;;;;;0.10;0.10;;;13.80;99.90;;;;;;5050397;28;20394;-73
2022/10/08 06:56:13;;;;;;;0.60;0.60;;;13.80;99.90;;;;;;5033530;28;20032;-74
2022/10/08 06:58:40;;;;;;;0.20;0.20;;;13.90;99.90;;;;;;5050446;28;20025;-74
2022/10/08 07:01:09;;;;;;;0.30;0.30;;;14.10;99.90;;;;;;5051353;28;20159;-74
2022/10/08 07:03:35;;;;;;;0.10;0.10;;;14.20;99.90;;;;;;5051569;28;20029;-74
2022/10/08 07:06:03;;;;;;;0.10;0.10;;;14.20;99.90;;;;;;5051063;28;20021;-74
2022/10/08 07:08:30;;;;;;;0.15;0.15;;;14.20;99.90;;;;;;5050321;28;20482;-76
2022/10/08 07:11:03;;;;;;;0.20;0.20;;;14.20;99.90;;;;;;5050385;28;20043;-75
2022/10/08 07:13:28;;;;;;;0.32;0.32;;;14.20;99.90;;;;;;5050143;28;20020;-75
2022/10/08 07:16:01;;;;;;;0.30;0.30;;;14.30;99.90;;;;;;5051289;28;20029;-75
2022/10/08 07:18:27;;;;;;;2.65;0.98;;;14.30;99.90;;;;;;5051512;28;20037;-76
2022/10/08 07:20:56;;;;;;;0.10;0.10;;;14.30;99.90;;;;;;5050294;28;20036;-75
2022/10/08 07:23:23;;;;;;;0.20;0.20;;;14.30;99.90;;;;;;5033591;28;20767;-75
2022/10/08 07:26:16;;;;;;;0.28;0.28;;;14.30;99.90;;;;;;5051154;28;20029;-74
2022/10/08 07:28:48;;;;;;;0.10;0.10;;;14.40;99.90;;;;;;5035979;23;20046;-87
2022/10/08 07:31:20;;;;;;;0.10;0.10;;;14.40;99.90;;;;;;4986692;28;20081;-88
2022/10/08 07:34:25;;;;;;;0.20;0.20;;;14.50;99.90;;;;;;4977337;28;20031;-88
2022/10/08 07:36:54;;;;;;;0.10;0.10;;;14.50;99.90;;;;;;4980000;28;20026;-86
2022/10/08 07:39:26;;;;;;;0.10;0.10;;;14.60;99.90;;;;;;4981014;28;20027;-85
2022/10/08 07:42:31;;;;;;;0.13;0.13;;;14.60;99.90;;;;;;4976225;28;20400;-86
2022/10/08 07:45:14;;;;;;;0.10;0.10;;;14.60;99.90;;;;;;4975900;28;20031;-86
2022/10/08 07:48:21;;;;;;;0.15;0.15;;;14.60;99.90;;;;;;4960217;28;20053;-86
2022/10/08 07:54:36;;;;;;;0.10;0.10;;;14.70;99.90;;;;;;4964669;28;20117;-87
2022/10/08 08:04:15;;;;;;;0.10;0.10;;;15.00;99.90;;;;;;4969630;28;20144;-86
2022/10/08 08:10:29;;;;;;;0.10;0.10;;;15.00;99.90;;;;;;4986768;28;20081;-87
2022/10/08 08:13:24;;;;;;;0.38;0.38;;;15.10;99.90;;;;;;4959677;28;20030;-87
2022/10/08 08:16:12;;;;;;;0.10;0.10;;;15.10;99.90;;;;;;4966991;28;20035;-86
2022/10/08 08:18:59;;;;;;;0.20;0.20;;;15.10;99.90;;;;;;4975943;28;20034;-84
2022/10/08 08:21:31;;;;;;;1.33;1.23;;;15.10;99.90;;;;;;4960017;28;20065;-87
2022/10/08 08:24:50;;;;;;;0.10;0.10;;;15.20;99.90;;;;;;4960090;28;20035;-86
2022/10/08 08:27:26;;;;;;;0.10;0.10;;;15.30;99.90;;;;;;4950123;28;20086;-86
2022/10/08 08:30:18;;;;;;;0.50;0.50;;;15.30;99.90;;;;;;4977661;28;20038;-86
2022/10/08 08:33:12;;;;;;;1.20;0.68;;;15.30;99.90;;;;;;4963624;28;20030;-86
2022/10/08 08:39:07;;;;;;;0.10;0.10;;;15.50;99.90;;;;;;4935437;28;20177;-86
2022/10/08 08:45:39;;;;;;;0.55;0.55;;;15.90;99.90;;;;;;4996780;28;20140;-87
2022/10/08 08:48:39;;;;;;;0.10;0.10;;;16.20;99.90;;;;;;4963340;28;20084;-86
2022/10/08 08:51:33;;;;;;;1.08;0.77;;;16.50;99.90;;;;;;4978093;28;20224;-86
2022/10/08 08:54:34;;;;;;;0.03;0.03;;;16.60;99.90;;;;;;4963556;28;20034;-86
2022/10/08 08:57:28;;;;;;;0.10;0.10;;;16.90;99.90;;;;;;4962425;28;20022;-87
2022/10/08 09:00:17;;;;;;;0.10;0.10;;;17.10;99.90;;;;;;4978152;28;20515;-86
2022/10/08 09:03:34;;;;;;;0.10;0.10;;;17.40;99.90;;;;;;4964835;28;20414;-87
2022/10/08 09:06:25;;;;;;;0.10;0.10;;;17.60;99.90;;;;;;4963153;28;20038;-87
2022/10/08 09:09:31;;;;;;;1.45;1.30;;;18.00;99.90;;;;;;4962442;28;20033;-86
2022/10/08 09:12:14;;;;;;;0.35;0.35;;;18.20;99.90;;;;;;4978191;28;20038;-87
2022/10/08 09:15:00;;;;;;;0.60;0.60;;;18.60;99.90;;;;;;4978662;28;20106;-86
2022/10/08 09:18:14;;;;;;;0.10;0.10;;;18.90;99.90;;;;;;4962788;28;20022;-87
2022/10/08 09:20:57;;;;;;;0.10;0.10;;;18.70;99.90;;;;;;4977323;28;20050;-87
2022/10/08 09:23:38;;;;;;;0.65;0.43;;;18.60;99.90;;;;;;4961707;28;20080;-86
2022/10/08 09:26:55;;;;;;;0.10;0.10;;;18.60;99.90;;;;;;4981333;28;20022;-87
2022/10/08 09:41:05;;;;;;;0.70;0.70;;;19.10;99.90;;;;;;4954443;28;20121;-86
2022/10/08 09:45:04;;;;;;;;;;;;;;;;;;;;;
2022/10/08 09:48:31;;;;;;;0.10;0.10;;;19.30;99.90;;;;;;4956212;29;20043;-86
2022/10/08 09:51:48;;;;;;;0.60;0.60;;;18.80;99.90;;;;;;4926888;29;20054;-87
2022/10/08 09:55:07;;;;;;;1.17;1.15;;;18.70;99.90;;;;;;4950429;28;20038;-87
2022/10/08 09:57:59;;;;;;;0.10;0.10;;;18.60;99.90;;;;;;4995567;28;20057;-87
2022/10/08 10:01:37;;;;;;;0.20;0.20;;;18.60;99.90;;;;;;4974009;28;20034;-87
2022/10/08 10:04:49;;;;;;;0.10;0.10;;;18.50;99.90;;;;;;4955317;29;20031;-86
2022/10/08 10:18:41;;;;;;;;;;;;;;;;;;;;;
2022/10/08 10:21:46;;;;;;;0.57;0.57;;;20.70;99.90;;;;;;4901500;29;20044;-85
2022/10/08 10:24:47;;;;;;;0.10;0.10;;;21.60;99.90;;;;;;4885852;29;20025;-87
2022/10/08 10:27:40;;;;;;;0.32;0.32;;;22.20;99.90;;;;;;4895531;29;20031;-87
2022/10/08 10:30:59;;;;;;;2.72;0.65;;;22.10;99.90;;;;;;4926767;29;20126;-88
2022/10/08 10:34:05;;;;;;;0.15;0.15;;;22.10;99.60;;;;;;4940070;29;20051;-87
2022/10/08 10:37:11;;;;;;;0.00;0.00;;;22.10;99.90;;;;;;4967149;28;20034;-87
2022/10/08 10:40:12;;;;;;;0.57;0.57;;;22.20;99.70;;;;;;4993384;23;20595;-73
2022/10/08 10:43:19;;;;;;;0.10;0.10;;;21.00;99.90;;;;;;5014473;28;20543;-74
2022/10/08 10:45:54;;;;;;;0.20;0.20;;;20.80;99.90;;;;;;5032037;28;20021;-75
2022/10/08 10:48:20;;;;;;;0.10;0.10;;;20.90;99.90;;;;;;5032193;28;20029;-75
2022/10/08 10:51:11;;;;;;;0.00;0.00;;;21.00;99.90;;;;;;5014498;28;20231;-75
2022/10/08 10:53:41;;;;;;;0.20;0.20;;;20.60;99.90;;;;;;5030784;28;20029;-75
2022/10/08 10:56:14;;;;;;;0.10;0.10;;;20.40;99.90;;;;;;5014465;28;20061;-75
2022/10/08 10:59:05;;;;;;;0.00;0.00;;;20.40;99.90;;;;;;5032484;28;20028;-74
2022/10/08 11:01:56;;;;;;;0.20;0.20;;;20.10;99.90;;;;;;5032118;28;20226;-75
2022/10/08 11:04:41;;;;;;;2.78;0.98;;;19.90;99.90;;;;;;5014204;28;20022;-75
2022/10/08 11:07:19;;;;;;;1.25;0.95;;;19.60;99.90;;;;;;5014392;28;20029;-75
2022/10/08 11:10:01;;;;;;;2.17;2.05;;;19.30;99.90;;;;;;5014223;28;20104;-75
2022/10/08 11:12:43;;;;;;;0.40;0.40;;;19.20;99.90;;;;;;5032311;28;20025;-75
2022/10/08 11:15:47;;;;;;;;;;;19.20;99.90;;;;;;5032573;28;20439;-77
2022/10/08 11:18:42;;;;;;;0.30;0.30;;;19.00;99.90;;;;;;4954926;28;19910;-74
2022/10/08 11:21:10;;;;;;;0.20;0.20;;;18.90;99.90;;;;;;4965040;28;20116;-76
2022/10/08 11:23:57;;;;;;;2.28;1.25;;;18.90;99.90;;;;;;4995144;28;20036;-77
2022/10/08 11:26:24;;;;;;;0.70;0.65;;;18.90;99.90;;;;;;5032878;28;20021;-75
2022/10/08 11:28:55;;;;;;;0.98;0.77;;;18.70;99.90;;;;;;5031567;28;20028;-74
2022/10/08 11:31:51;;;;;;;0.10;0.10;;;18.60;99.90;;;;;;5014072;28;20029;-75
2022/10/08 11:34:31;;;;;;;0.10;0.10;;;18.60;99.90;;;;;;5019011;28;20397;-74
2022/10/08 11:37:23;;;;;;;1.00;0.98;;;18.50;99.90;;;;;;5014254;28;20113;-74
2022/10/08 11:40:02;;;;;;;0.10;0.10;;;18.40;99.90;;;;;;5031658;28;20041;-76
2022/10/08 11:42:38;;;;;;;0.30;0.30;;;18.20;99.90;;;;;;5031743;28;20032;-74
2022/10/08 11:45:22;;;;;;;0.40;0.40;;;18.20;99.90;;;;;;5031352;28;20396;-74
2022/10/08 11:47:52;;;;;;;0.88;0.65;;;18.30;99.90;;;;;;5031721;28;20401;-75
2022/10/08 11:50:25;;;;;;;0.10;0.10;;;18.20;99.90;;;;;;5031447;28;20041;-75
2022/10/08 11:52:54;;;;;;;0.10;0.10;;;18.20;99.90;;;;;;5013971;28;20096;-75
2022/10/08 11:55:27;;;;;;;0.03;0.03;;;18.30;99.90;;;;;;5031353;28;20037;-75
2022/10/08 11:57:59;;;;;;;0.10;0.10;;;18.30;99.90;;;;;;5031428;28;20500;-75
2022/10/08 12:00:43;;;;;;;0.15;0.15;;;18.30;99.90;;;;;;5031503;28;20029;-75
2022/10/08 12:03:36;;;;;;;0.10;0.10;;;18.20;99.90;;;;;;5031534;28;20071;-75
2022/10/08 12:06:25;;;;;;;0.10;0.10;;;18.20;99.90;;;;;;5028698;28;20041;-75
2022/10/08 12:08:57;;;;;;;0.30;0.30;;;18.20;99.90;;;;;;5014580;28;20017;-75
2022/10/08 12:11:46;;;;;;;0.10;0.10;;;18.20;99.90;;;;;;5031314;28;20473;-75
2022/10/08 12:14:15;;;;;;;0.40;0.40;;;18.10;99.90;;;;;;5024667;28;20508;-75
2022/10/08 12:16:47;;;;;;;0.22;0.22;;;18.10;99.90;;;;;;5031315;28;20496;-74
2022/10/08 12:19:34;;;;;;;0.20;0.20;;;18.10;99.90;;;;;;5012102;28;20608;-76
2022/10/08 12:22:13;;;;;;;0.10;0.10;;;18.00;99.90;;;;;;5022199;28;20029;-75
2022/10/08 12:24:38;;;;;;;0.13;0.13;;;18.00;99.90;;;;;;5052681;28;20036;-76
2022/10/08 12:27:16;;;;;;;0.10;0.10;;;18.10;99.90;;;;;;5034987;28;20470;-75
2022/10/08 12:29:58;;;;;;;0.10;0.10;;;18.10;99.90;;;;;;5034651;28;20082;-75
2022/10/08 12:32:49;;;;;;;0.45;0.45;;;18.10;99.90;;;;;;5035208;28;20076;-76
2022/10/08 12:35:21;;;;;;;0.20;0.20;;;18.00;99.90;;;;;;5005875;28;20470;-76
2022/10/08 12:37:56;;;;;;;0.10;0.10;;;18.00;99.90;;;;;;5014667;28;20041;-75
2022/10/08 12:40:38;;;;;;;0.10;0.10;;;17.90;99.90;;;;;;5015158;28;20034;-76
2022/10/08 12:43:15;;;;;;;0.10;0.10;;;18.10;99.90;;;;;;4995837;28;20454;-75
2022/10/08 12:46:34;;;;;;;0.10;0.10;;;18.00;99.90;;;;;;4995663;28;20113;-75
2022/10/08 12:49:04;;;;;;;0.10;0.10;;;18.10;99.90;;;;;;4953090;28;20034;-73
2022/10/08 12:51:36;;;;;;;0.10;0.10;;;18.00;99.90;;;;;;4995088;28;20030;-71
2022/10/08 12:54:02;;;;;;;;;;;18.20;99.90;;;;;;5001788;28;20049;-73
2022/10/08 12:56:30;;;;;;;0.10;0.10;;;18.10;99.90;;;;;;5013183;28;19909;-72
2022/10/08 12:59:00;;;;;;;0.00;0.00;;;18.20;99.90;;;;;;5034209;28;20021;-71
2022/10/08 13:01:26;;;;;;;0.45;0.20;;;18.10;99.90;;;;;;5016419;28;20049;-73
2022/10/08 13:04:16;;;;;;;0.10;0.10;;;18.10;99.90;;;;;;5008096;28;20626;-72
2022/10/08 13:06:42;;;;;;;0.10;0.10;;;18.00;99.90;;;;;;5034260;28;20068;-72
2022/10/08 13:09:34;;;;;;;0.57;0.57;;;18.00;99.90;;;;;;5034366;28;20022;-72
2022/10/08 13:12:02;;;;;;;0.10;0.10;;;18.00;99.90;;;;;;5013766;28;20052;-73
2022/10/08 13:14:34;;;;;;;0.10;0.10;;;18.00;99.90;;;;;;5015080;28;20014;-73
2022/10/08 13:17:00;;;;;;;0.10;0.10;;;17.90;99.90;;;;;;5014985;28;20057;-73
2022/10/08 13:19:32;;;;;;;0.20;0.20;;;17.80;99.90;;;;;;5014316;28;20038;-73
2022/10/08 13:22:00;;;;;;;0.55;0.55;;;17.60;99.90;;;;;;5014968;28;20520;-74
2022/10/08 13:24:29;;;;;;;0.10;0.10;;;17.60;99.90;;;;;;4997337;28;20565;-73
2022/10/08 13:26:56;;;;;;;0.17;0.17;;;17.50;99.90;;;;;;5014884;28;20029;-74
2022/10/08 13:29:26;;;;;;;0.20;0.20;;;17.60;99.90;;;;;;5044067;23;20033;-77
2022/10/08 13:31:59;;;;;;;0.85;0.85;;;17.50;99.90;;;;;;5051359;28;20048;-77
2022/10/08 13:34:32;;;;;;;0.10;0.10;;;17.50;99.90;;;;;;5053271;28;20065;-78
2022/10/08 13:37:01;;;;;;;0.10;0.10;;;17.40;99.90;;;;;;5051631;28;20024;-77
2022/10/08 13:39:37;;;;;;;0.10;0.10;;;17.50;99.90;;;;;;5068186;28;20070;-77
2022/10/08 13:42:09;;;;;;;0.25;0.25;;;17.50;99.90;;;;;;5051740;28;20025;-76
2022/10/08 13:44:37;;;;;;;0.15;0.15;;;17.50;99.90;;;;;;5035091;28;20111;-76
2022/10/08 13:47:03;;;;;;;1.75;1.65;;;17.30;99.90;;;;;;5052699;28;20024;-77
2022/10/08 13:49:31;;;;;;;0.10;0.10;;;17.30;99.90;;;;;;5068064;28;20082;-76
2022/10/08 13:51:58;;;;;;;0.10;0.10;;;17.40;99.90;;;;;;5052713;28;20139;-77
2022/10/08 13:54:27;;;;;;;0.20;0.20;;;17.30;99.90;;;;;;5034737;28;20534;-78
2022/10/08 13:56:53;;;;;;;0.10;0.10;;;17.30;99.90;;;;;;5051859;28;20021;-79
2022/10/08 13:59:19;;;;;;;0.10;0.10;;;17.30;99.90;;;;;;5052048;28;20055;-78
2022/10/08 14:01:46;;;;;;;8.77;3.50;;;17.30;99.90;;;;;;5052877;28;20029;-77
2022/10/08 14:04:12;;;;;;;0.22;0.22;;;17.30;99.90;;;;;;5034441;28;20029;-76
2022/10/08 14:06:40;;;;;;;0.10;0.10;;;17.30;99.90;;;;;;5052101;28;20025;-77
2022/10/08 14:09:11;;;;;;;0.25;0.25;;;17.30;99.90;;;;;;5034536;28;20021;-77
2022/10/08 14:11:40;;;;;;;1.60;1.60;;;17.00;99.90;;;;;;5067762;28;20534;-77
2022/10/08 14:14:09;;;;;;;0.50;0.50;;;16.90;99.90;;;;;;5050942;28;20097;-77
2022/10/08 14:16:35;;;;;;;0.00;0.00;;;17.00;99.90;;;;;;5052110;28;20056;-81
2022/10/08 14:19:00;;;;;;;0.10;0.10;;;17.10;99.90;;;;;;5052247;28;20550;-77
2022/10/08 14:21:26;;;;;;;0.10;0.10;;;17.10;99.90;;;;;;5052153;28;20025;-77